Strakonice, Czech Republic
Current Conditions -  °F | °C
As of 6:16 PM on Friday 24 Oct 2014 (Local Time) from LKLN Reporting Station
Broken Clouds Broken Clouds  
Wind Chill: 45°   Ceiling: 1500
Heat Index: 45°   Visibility: NA
Dew Point: 45°   Wind: 1mph
Humidity: 100%   Direction: 10°N
Pressure: 30.18"   Gusts: NA
Location:  49.26°N, 13.91°E
Report Text: LKLN 241616Z AUTO 01001KT //// BKN015 07/07 Q1022
Loading
Personal Weather Stations






























Interactive Weather Map
Tropical Storm Tracking
New forecast layout! Learn more

10-Day Weather Forecast

Advertisements
Track Severe Weather on mobile